createdAt,value
2018-08-14T00:00:37.046Z,22.80
2018-08-14T00:03:15.666Z,22.80
2018-08-14T00:05:44.778Z,22.80
2018-08-14T00:08:13.740Z,22.80
2018-08-14T00:10:42.048Z,22.70
2018-08-14T00:13:12.764Z,22.70
2018-08-14T00:15:41.567Z,22.70
2018-08-14T00:18:10.123Z,22.70
2018-08-14T00:20:38.504Z,22.70
2018-08-14T00:23:06.876Z,22.70
2018-08-14T00:25:35.242Z,22.70
2018-08-14T00:28:04.599Z,22.60
2018-08-14T00:30:33.602Z,22.60
2018-08-14T00:33:01.992Z,22.60
2018-08-14T00:35:30.411Z,22.60
2018-08-14T00:37:59.237Z,22.60
2018-08-14T00:40:29.200Z,22.60
2018-08-14T00:42:59.311Z,22.60
2018-08-14T00:45:27.702Z,22.60
2018-08-14T00:47:56.074Z,22.50
2018-08-14T00:50:24.701Z,22.60
2018-08-14T00:52:53.050Z,22.60
2018-08-14T00:55:22.551Z,22.50
2018-08-14T00:57:51.459Z,22.50
2018-08-14T01:00:27.414Z,22.50
2018-08-14T01:02:55.740Z,22.50
2018-08-14T01:05:24.067Z,22.50
2018-08-14T01:07:52.477Z,22.40
2018-08-14T01:10:20.850Z,22.50
2018-08-14T01:12:51.785Z,22.40
2018-08-14T01:15:21.422Z,22.40
2018-08-14T01:17:52.962Z,22.40
2018-08-14T01:20:23.685Z,22.40
2018-08-14T01:22:52.140Z,22.40
2018-08-14T01:25:20.757Z,22.40
2018-08-14T01:27:50.223Z,22.40
2018-08-14T01:30:24.387Z,22.40
2018-08-14T01:32:52.764Z,22.40
2018-08-14T01:35:21.172Z,22.40
2018-08-14T01:37:49.633Z,22.40
2018-08-14T01:40:17.995Z,22.40
2018-08-14T01:42:46.351Z,22.40
2018-08-14T01:45:15.353Z,22.40
2018-08-14T01:47:43.989Z,22.30
2018-08-14T01:50:16.039Z,22.30
2018-08-14T01:52:44.451Z,22.30
2018-08-14T01:55:12.807Z,22.20
2018-08-14T01:57:41.103Z,22.30
2018-08-14T02:00:10.018Z,22.30
2018-08-14T02:02:38.497Z,22.30
2018-08-14T02:05:08.200Z,22.30
2018-08-14T02:07:36.890Z,22.30
2018-08-14T02:10:07.010Z,22.20
2018-08-14T02:12:35.423Z,22.20
2018-08-14T02:15:04.816Z,22.20
2018-08-14T02:17:33.186Z,22.20
2018-08-14T02:20:01.542Z,22.20
2018-08-14T02:22:30.071Z,22.20
2018-08-14T02:24:58.398Z,22.10
2018-08-14T02:27:26.727Z,22.10
2018-08-14T02:29:55.083Z,22.10
2018-08-14T02:32:23.356Z,22.10
2018-08-14T02:34:51.667Z,22.10
2018-08-14T02:37:20.359Z,22.10
2018-08-14T02:39:48.702Z,22.10
2018-08-14T02:42:17.043Z,22.10
2018-08-14T02:44:45.381Z,22.10
2018-08-14T02:47:13.762Z,22.10
2018-08-14T02:49:42.090Z,22.10
2018-08-14T02:52:10.464Z,22.00
2018-08-14T02:54:38.795Z,22.00
2018-08-14T02:57:07.191Z,22.00
2018-08-14T02:59:35.571Z,22.00
2018-08-14T03:02:04.130Z,22.00
2018-08-14T03:04:32.527Z,21.90
2018-08-14T03:07:00.839Z,21.90
2018-08-14T03:09:29.150Z,21.90
2018-08-14T03:11:57.475Z,21.90
2018-08-14T03:14:25.787Z,21.90
2018-08-14T03:16:54.132Z,21.90
2018-08-14T03:19:22.468Z,21.90
2018-08-14T03:21:51.206Z,21.90
2018-08-14T03:24:19.517Z,21.80
2018-08-14T03:26:47.820Z,21.80
2018-08-14T03:29:16.183Z,21.80
2018-08-14T03:31:44.504Z,21.80
2018-08-14T03:34:13.442Z,21.70
2018-08-14T03:36:41.814Z,21.60
2018-08-14T03:39:12.521Z,21.70
2018-08-14T03:41:41.294Z,21.60
2018-08-14T03:44:09.672Z,21.60
2018-08-14T03:46:38.046Z,21.70
2018-08-14T03:49:06.417Z,21.70
2018-08-14T03:51:34.782Z,21.60
2018-08-14T03:54:03.135Z,21.60
2018-08-14T03:56:31.447Z,21.60
2018-08-14T03:58:59.803Z,21.60
2018-08-14T04:01:28.103Z,21.60
2018-08-14T04:03:56.446Z,21.50
2018-08-14T04:06:24.770Z,21.50
2018-08-14T04:08:53.156Z,21.50
2018-08-14T04:11:21.501Z,21.50
2018-08-14T04:13:49.816Z,21.50
2018-08-14T04:16:18.134Z,21.50
2018-08-14T04:18:46.469Z,21.50
2018-08-14T04:21:14.779Z,21.50
2018-08-14T04:23:43.094Z,21.50
2018-08-14T04:26:11.401Z,21.50
2018-08-14T04:28:39.731Z,21.40
2018-08-14T04:31:08.106Z,21.40
2018-08-14T04:33:36.451Z,21.40
2018-08-14T04:36:04.778Z,21.40
2018-08-14T04:38:33.563Z,21.40
2018-08-14T04:41:02.003Z,21.40
2018-08-14T04:43:30.335Z,21.40
2018-08-14T04:45:58.737Z,21.40
2018-08-14T04:48:27.020Z,21.40
2018-08-14T04:50:55.352Z,21.40
2018-08-14T04:53:23.675Z,21.40
2018-08-14T04:55:51.991Z,21.40
2018-08-14T04:58:21.083Z,21.40
2018-08-14T05:00:49.441Z,21.40
2018-08-14T05:03:18.108Z,21.40
2018-08-14T05:05:46.450Z,21.50
2018-08-14T05:08:14.822Z,21.50
2018-08-14T05:10:43.634Z,21.50
2018-08-14T05:13:11.946Z,21.50
2018-08-14T05:15:40.307Z,21.50
2018-08-14T05:18:08.659Z,21.60
2018-08-14T05:20:37.015Z,21.60
2018-08-14T05:23:06.343Z,21.60
2018-08-14T05:25:34.682Z,21.60
2018-08-14T05:28:03.055Z,21.60
2018-08-14T05:30:31.774Z,21.60
2018-08-14T05:33:00.474Z,21.70
2018-08-14T05:35:28.849Z,21.60
2018-08-14T05:37:57.203Z,21.60
2018-08-14T05:40:25.510Z,21.60
2018-08-14T05:42:53.823Z,21.60
2018-08-14T05:45:22.202Z,21.50
2018-08-14T05:47:50.538Z,21.60
2018-08-14T05:50:19.267Z,21.60
2018-08-14T05:52:47.658Z,21.60
2018-08-14T05:55:16.606Z,21.50
2018-08-14T05:57:44.943Z,21.50
2018-08-14T06:00:16.832Z,21.50
2018-08-14T06:02:45.230Z,21.60
2018-08-14T06:05:13.566Z,21.50
2018-08-14T06:07:41.875Z,21.30
2018-08-14T06:10:10.922Z,21.20
2018-08-14T06:12:39.484Z,21.20
2018-08-14T06:15:11.843Z,21.20
2018-08-14T06:17:40.327Z,21.30
2018-08-14T06:20:11.248Z,21.30
2018-08-14T06:22:41.724Z,21.20
2018-08-14T06:25:11.175Z,21.30
2018-08-14T06:27:42.692Z,21.40
2018-08-14T06:30:15.504Z,21.30
2018-08-14T06:32:43.938Z,21.40
2018-08-14T06:35:12.334Z,21.20
2018-08-14T06:37:40.822Z,21.30
2018-08-14T06:40:11.567Z,21.40
2018-08-14T06:42:40.541Z,21.40
2018-08-14T06:45:11.792Z,21.40
2018-08-14T06:47:40.413Z,21.40
2018-08-14T06:50:11.143Z,21.40
2018-08-14T06:52:39.769Z,21.40
2018-08-14T06:55:09.316Z,21.40
2018-08-14T06:57:38.336Z,21.40
2018-08-14T07:00:09.400Z,21.50
2018-08-14T07:02:37.947Z,21.40
2018-08-14T07:05:07.056Z,21.50
2018-08-14T07:07:35.439Z,21.50
2018-08-14T07:10:04.531Z,21.50
2018-08-14T07:12:32.914Z,21.50
2018-08-14T07:15:01.300Z,21.40
2018-08-14T07:17:29.608Z,21.40
2018-08-14T07:19:57.997Z,21.40
2018-08-14T07:22:26.380Z,21.40
2018-08-14T07:24:54.986Z,21.30
2018-08-14T07:27:23.338Z,21.40
2018-08-14T07:29:51.690Z,21.50
2018-08-14T07:32:20.067Z,21.50
2018-08-14T07:34:48.387Z,21.50
2018-08-14T07:37:16.711Z,21.40
2018-08-14T07:39:45.031Z,21.40
2018-08-14T07:42:13.358Z,21.50
2018-08-14T07:44:41.688Z,21.50
2018-08-14T07:47:10.164Z,21.60
2018-08-14T07:49:38.543Z,21.60
2018-08-14T07:52:06.831Z,21.60
2018-08-14T07:54:35.206Z,21.70
2018-08-14T07:57:03.686Z,21.70
2018-08-14T07:59:32.044Z,21.80
2018-08-14T08:02:00.709Z,21.80
2018-08-14T08:04:29.210Z,21.90
2018-08-14T08:06:58.078Z,22.00
2018-08-14T08:09:26.507Z,21.90
2018-08-14T08:11:55.238Z,21.90
2018-08-14T08:14:23.567Z,22.00
2018-08-14T08:16:51.922Z,21.90
2018-08-14T08:19:20.364Z,21.90
2018-08-14T08:21:48.743Z,21.90
2018-08-14T08:24:17.095Z,21.90
2018-08-14T08:26:45.445Z,21.90
2018-08-14T08:29:13.933Z,21.80
2018-08-14T08:31:42.280Z,21.80
2018-08-14T08:34:10.619Z,21.90
2018-08-14T08:36:38.941Z,22.10
2018-08-14T08:39:08.003Z,22.10
2018-08-14T08:41:36.471Z,22.20
2018-08-14T08:44:04.991Z,22.30
2018-08-14T08:46:33.315Z,22.30
2018-08-14T08:49:01.725Z,22.30
2018-08-14T08:51:30.054Z,22.40
2018-08-14T08:53:58.328Z,22.60
2018-08-14T08:56:26.646Z,22.60
2018-08-14T08:58:54.963Z,22.60
2018-08-14T09:01:23.295Z,22.60
2018-08-14T09:03:51.625Z,22.60
2018-08-14T09:06:19.963Z,22.60
2018-08-14T09:08:48.822Z,22.60
2018-08-14T09:11:17.171Z,22.70
2018-08-14T09:13:45.522Z,22.70
2018-08-14T09:16:13.836Z,22.80
2018-08-14T09:18:42.169Z,22.80
2018-08-14T09:21:10.455Z,22.90
2018-08-14T09:23:38.853Z,23.00
2018-08-14T09:26:07.472Z,23.00
2018-08-14T09:28:35.926Z,22.90
2018-08-14T09:31:04.466Z,22.90
2018-08-14T09:33:33.090Z,23.00
2018-08-14T09:36:01.427Z,23.00
2018-08-14T09:38:29.803Z,23.00
2018-08-14T09:40:58.287Z,23.00
2018-08-14T09:43:26.614Z,23.10
2018-08-14T09:45:54.967Z,23.20
2018-08-14T09:48:23.314Z,23.30
2018-08-14T09:50:51.782Z,23.20
2018-08-14T09:53:20.279Z,23.20
2018-08-14T09:55:48.753Z,23.20
2018-08-14T09:58:17.095Z,23.30
2018-08-14T10:00:50.902Z,23.40
2018-08-14T10:03:24.698Z,23.40
2018-08-14T10:05:58.310Z,23.40
2018-08-14T10:08:27.431Z,23.50
2018-08-14T10:10:55.839Z,23.50
2018-08-14T10:13:24.230Z,23.50
2018-08-14T10:15:52.665Z,23.40
2018-08-14T10:18:23.014Z,23.50
2018-08-14T10:20:51.470Z,23.60
2018-08-14T10:23:19.804Z,23.70
2018-08-14T10:25:48.558Z,23.70
2018-08-14T10:28:19.713Z,23.80
2018-08-14T10:30:48.119Z,23.70
2018-08-14T10:33:16.677Z,23.80
2018-08-14T10:35:45.063Z,23.80
2018-08-14T10:38:13.627Z,23.90
2018-08-14T10:40:42.018Z,23.80
2018-08-14T10:43:10.363Z,23.80
2018-08-14T10:45:38.738Z,23.70
2018-08-14T10:48:07.135Z,23.80
2018-08-14T10:50:35.446Z,23.80
2018-08-14T10:53:03.862Z,23.90
2018-08-14T10:55:32.983Z,23.90
2018-08-14T10:58:01.387Z,24.00
2018-08-14T11:00:30.614Z,24.00
2018-08-14T11:02:59.932Z,24.10
2018-08-14T11:05:28.283Z,24.00
2018-08-14T11:07:57.423Z,24.10
2018-08-14T11:10:29.265Z,24.20
2018-08-14T11:12:58.574Z,24.30
2018-08-14T11:15:27.504Z,24.30
2018-08-14T11:17:55.995Z,24.20
2018-08-14T11:20:25.755Z,24.30
2018-08-14T11:22:54.165Z,24.40
2018-08-14T11:25:22.890Z,24.40
2018-08-14T11:27:51.296Z,24.40
2018-08-14T11:30:21.321Z,24.40
2018-08-14T11:32:50.050Z,24.30
2018-08-14T11:35:19.087Z,24.30
2018-08-14T11:37:47.595Z,24.50
2018-08-14T11:40:15.954Z,24.50
2018-08-14T11:42:44.329Z,24.50
2018-08-14T11:45:16.015Z,24.40
2018-08-14T11:47:44.728Z,24.60
2018-08-14T11:50:14.469Z,24.60
2018-08-14T11:52:43.774Z,24.70
2018-08-14T11:55:12.239Z,24.70
2018-08-14T11:57:40.605Z,24.60
2018-08-14T12:00:12.106Z,24.70
2018-08-14T12:02:40.471Z,24.70
2018-08-14T12:05:09.607Z,24.70
2018-08-14T12:07:39.008Z,24.60
2018-08-14T12:10:08.399Z,24.70
2018-08-14T12:12:36.749Z,24.60
2018-08-14T12:15:06.054Z,24.80
2018-08-14T12:17:34.466Z,24.80
2018-08-14T12:20:03.082Z,24.80
2018-08-14T12:22:31.440Z,24.70
2018-08-14T12:24:59.916Z,24.70
2018-08-14T12:27:28.274Z,24.70
2018-08-14T12:29:56.600Z,24.70
2018-08-14T12:32:24.990Z,24.60
2018-08-14T12:34:53.955Z,24.70
2018-08-14T12:37:24.224Z,24.60
2018-08-14T12:39:52.560Z,24.60
2018-08-14T12:42:21.299Z,24.70
2018-08-14T12:44:54.172Z,24.80
2018-08-14T12:47:23.140Z,24.90
2018-08-14T12:49:51.642Z,25.00
2018-08-14T12:52:20.005Z,25.00
2018-08-14T12:54:48.557Z,24.90
2018-08-14T12:57:17.318Z,25.00
2018-08-14T12:59:45.711Z,25.00
2018-08-14T13:02:14.137Z,24.90
2018-08-14T13:04:42.518Z,24.90
2018-08-14T13:07:10.964Z,25.00
2018-08-14T13:09:39.318Z,25.00
2018-08-14T13:12:07.688Z,25.00
2018-08-14T13:14:36.083Z,25.10
2018-08-14T13:17:05.238Z,25.10
2018-08-14T13:19:33.663Z,25.10
2018-08-14T13:22:01.971Z,25.10
2018-08-14T13:24:30.319Z,25.10
2018-08-14T13:26:58.688Z,25.00
2018-08-14T13:29:26.988Z,25.00
2018-08-14T13:31:55.287Z,25.00
2018-08-14T13:34:23.657Z,24.90
2018-08-14T13:36:51.996Z,25.00
2018-08-14T13:39:20.353Z,25.00
2018-08-14T13:41:48.722Z,25.00
2018-08-14T13:44:17.102Z,25.00
2018-08-14T13:46:45.435Z,25.00
2018-08-14T13:49:13.806Z,24.90
2018-08-14T13:51:42.156Z,25.00
2018-08-14T13:54:10.463Z,25.00
2018-08-14T13:56:38.790Z,25.10
2018-08-14T13:59:07.166Z,25.10
2018-08-14T14:01:35.454Z,25.10
2018-08-14T14:04:03.855Z,25.00
2018-08-14T14:06:32.167Z,25.00
2018-08-14T14:09:00.623Z,25.00
2018-08-14T14:11:28.962Z,25.10
2018-08-14T14:13:57.429Z,25.10
2018-08-14T14:16:25.802Z,25.10
2018-08-14T14:18:54.650Z,25.10
2018-08-14T14:21:22.988Z,25.10
2018-08-14T14:23:51.303Z,25.00
2018-08-14T14:26:19.632Z,25.10
2018-08-14T14:28:48.033Z,25.10
2018-08-14T14:31:16.377Z,25.10
2018-08-14T14:33:44.726Z,25.10
2018-08-14T14:36:13.054Z,25.10
2018-08-14T14:38:41.335Z,25.20
2018-08-14T14:41:09.659Z,25.20
2018-08-14T14:43:37.976Z,25.20
2018-08-14T14:46:06.378Z,25.20
2018-08-14T14:48:34.750Z,25.20
2018-08-14T14:51:03.074Z,25.20
2018-08-14T14:53:31.535Z,25.20
2018-08-14T14:55:59.915Z,25.20
2018-08-14T14:58:28.235Z,25.20
2018-08-14T15:00:56.628Z,25.20
2018-08-14T15:03:24.918Z,25.10
2018-08-14T15:05:53.304Z,25.10
2018-08-14T15:08:21.617Z,25.00
2018-08-14T15:10:49.956Z,24.90
2018-08-14T15:13:18.298Z,25.00
2018-08-14T15:15:46.587Z,24.90
2018-08-14T15:18:14.928Z,24.90
2018-08-14T15:20:43.222Z,24.80
2018-08-14T15:23:12.171Z,24.90
2018-08-14T15:25:40.450Z,24.90
2018-08-14T15:29:16.032Z,24.90
2018-08-14T15:31:46.870Z,24.80
2018-08-14T15:34:16.816Z,24.80
2018-08-14T15:36:47.167Z,24.80
2018-08-14T15:39:16.958Z,24.70
2018-08-14T15:41:45.339Z,24.80
2018-08-14T15:44:13.811Z,24.70
2018-08-14T15:46:42.211Z,24.70
2018-08-14T15:49:11.124Z,24.70
2018-08-14T15:51:39.523Z,24.70
2018-08-14T15:54:08.953Z,24.60
2018-08-14T15:56:37.366Z,24.70
2018-08-14T15:59:05.865Z,24.60
2018-08-14T16:01:34.637Z,24.70
2018-08-14T16:04:03.434Z,24.60
2018-08-14T16:06:31.732Z,24.70
2018-08-14T16:09:00.294Z,24.70
2018-08-14T16:11:28.651Z,24.80
2018-08-14T16:13:57.014Z,24.70
2018-08-14T16:16:25.378Z,24.80
2018-08-14T16:18:54.230Z,24.70
2018-08-14T16:21:22.670Z,24.60
2018-08-14T16:23:50.966Z,24.60
2018-08-14T16:26:19.312Z,24.70
2018-08-14T16:28:47.682Z,24.70
2018-08-14T16:31:16.031Z,24.70
2018-08-14T16:33:44.357Z,24.80
2018-08-14T16:36:12.724Z,24.80
2018-08-14T16:38:41.116Z,24.90
2018-08-14T16:41:09.464Z,24.80
2018-08-14T16:43:37.809Z,24.80
2018-08-14T16:46:06.182Z,24.70
2018-08-14T16:48:34.507Z,24.80
2018-08-14T16:51:02.792Z,24.90
2018-08-14T16:53:31.126Z,24.90
2018-08-14T16:55:59.462Z,24.90
2018-08-14T16:58:27.783Z,24.90
2018-08-14T17:00:56.155Z,24.90
2018-08-14T17:03:24.502Z,24.90
2018-08-14T17:05:57.842Z,24.90
2018-08-14T17:08:27.047Z,24.90
2018-08-14T17:10:55.726Z,24.90
2018-08-14T17:13:24.110Z,24.80
2018-08-14T17:15:52.453Z,24.70
2018-08-14T17:18:20.753Z,24.80
2018-08-14T17:20:48.011Z,24.80
2018-08-14T17:23:16.342Z,24.80
2018-08-14T17:25:44.646Z,24.70
2018-08-14T17:28:12.981Z,24.70
2018-08-14T17:30:41.370Z,24.70
2018-08-14T17:33:09.759Z,24.70
2018-08-14T17:35:38.444Z,24.70
2018-08-14T17:38:06.832Z,24.60
2018-08-14T17:40:35.139Z,24.50
2018-08-14T17:43:03.470Z,24.50
2018-08-14T17:45:32.178Z,24.50
2018-08-14T17:48:02.052Z,24.50
2018-08-14T17:50:30.706Z,24.60
2018-08-14T17:52:59.164Z,24.50
2018-08-14T17:55:27.968Z,24.40
2018-08-14T17:57:56.638Z,24.40
2018-08-14T18:00:27.403Z,24.40
2018-08-14T18:02:58.251Z,24.40
2018-08-14T18:05:26.716Z,24.30
2018-08-14T18:07:55.082Z,24.40
2018-08-14T18:10:24.066Z,24.30
2018-08-14T18:12:54.383Z,24.40
2018-08-14T18:15:22.991Z,24.30
2018-08-14T18:17:51.456Z,24.20
2018-08-14T18:20:22.151Z,24.20
2018-08-14T18:22:50.654Z,24.20
2018-08-14T18:25:20.151Z,24.20
2018-08-14T18:27:49.171Z,24.20
2018-08-14T18:30:18.735Z,24.20
2018-08-14T18:32:47.658Z,24.20
2018-08-14T18:35:16.584Z,24.20
2018-08-14T18:37:46.098Z,24.10
2018-08-14T18:40:20.789Z,24.10
2018-08-14T18:42:49.723Z,24.10
2018-08-14T18:45:19.388Z,24.10
2018-08-14T18:47:47.886Z,24.00
2018-08-14T18:50:16.882Z,24.10
2018-08-14T18:52:45.270Z,24.10
2018-08-14T18:55:15.254Z,24.10
2018-08-14T18:57:44.676Z,24.00
2018-08-14T19:02:44.684Z,23.90
2018-08-14T19:05:13.160Z,23.90
2018-08-14T19:07:43.391Z,24.00
2018-08-14T19:10:12.917Z,23.90
2018-08-14T19:12:41.345Z,23.90
2018-08-14T19:15:15.113Z,23.90
2018-08-14T19:17:44.292Z,23.90
2018-08-14T19:20:12.919Z,23.80
2018-08-14T19:22:42.239Z,23.90
2018-08-14T19:25:11.019Z,23.90
2018-08-14T19:27:40.446Z,23.90
2018-08-14T19:30:10.432Z,23.90
2018-08-14T19:32:38.923Z,23.90
2018-08-14T19:35:08.433Z,23.90
2018-08-14T19:37:37.117Z,23.90
2018-08-14T19:40:08.534Z,23.90
2018-08-14T19:42:36.930Z,23.90
2018-08-14T19:45:07.033Z,23.90
2018-08-14T19:47:35.477Z,23.80
2018-08-14T19:50:04.887Z,23.80
2018-08-14T19:52:33.419Z,23.80
2018-08-14T19:55:01.710Z,23.80
2018-08-14T19:57:30.772Z,23.80
2018-08-14T19:59:59.043Z,23.80
2018-08-14T20:02:27.417Z,23.80
2018-08-14T20:04:55.839Z,23.80
2018-08-14T20:07:25.179Z,23.80
2018-08-14T20:09:53.551Z,23.70
2018-08-14T20:12:21.937Z,23.70
2018-08-14T20:14:50.303Z,23.70
2018-08-14T20:17:18.674Z,23.70
2018-08-14T20:19:47.018Z,23.60
2018-08-14T20:22:16.853Z,23.70
2018-08-14T20:24:46.026Z,23.60
2018-08-14T20:27:14.846Z,23.60
2018-08-14T20:29:43.452Z,23.60
2018-08-14T20:32:11.791Z,23.60
2018-08-14T20:34:40.339Z,23.50
2018-08-14T20:37:08.723Z,23.50
2018-08-14T20:39:37.163Z,23.50
2018-08-14T20:42:05.526Z,23.50
2018-08-14T20:44:33.902Z,23.50
2018-08-14T20:47:03.158Z,23.40
2018-08-14T20:49:31.529Z,23.40
2018-08-14T20:51:59.911Z,23.40
2018-08-14T20:54:29.088Z,23.40
2018-08-14T20:56:57.554Z,23.40
2018-08-14T20:59:25.926Z,23.30
2018-08-14T21:01:54.271Z,23.30
2018-08-14T21:04:22.658Z,23.30
2018-08-14T21:06:51.027Z,23.30
2018-08-14T21:09:19.414Z,23.30
2018-08-14T21:11:47.764Z,23.30
2018-08-14T21:14:16.126Z,23.20
2018-08-14T21:16:44.535Z,23.20
2018-08-14T21:19:13.071Z,23.20
2018-08-14T21:21:41.460Z,23.10
2018-08-14T21:24:09.808Z,23.10
2018-08-14T21:26:38.111Z,23.10
2018-08-14T21:29:07.243Z,23.10
2018-08-14T21:31:35.526Z,23.10
2018-08-14T21:34:03.945Z,23.00
2018-08-14T21:36:32.290Z,23.00
2018-08-14T21:39:00.638Z,23.00
2018-08-14T21:41:28.974Z,23.00
2018-08-14T21:43:57.334Z,23.00
2018-08-14T21:46:25.631Z,22.90
2018-08-14T21:48:54.052Z,22.90
2018-08-14T21:51:22.394Z,22.90
2018-08-14T21:53:50.780Z,22.90
2018-08-14T21:56:19.383Z,22.90
2018-08-14T21:58:47.690Z,22.80
2018-08-14T22:01:16.199Z,22.80
2018-08-14T22:03:46.633Z,22.80
2018-08-14T22:06:15.608Z,22.80
2018-08-14T22:08:43.979Z,22.80
2018-08-14T22:11:12.320Z,22.70
2018-08-14T22:13:40.648Z,22.70
2018-08-14T22:16:09.411Z,22.70
2018-08-14T22:18:37.802Z,22.70
2018-08-14T22:21:06.142Z,22.70
2018-08-14T22:23:34.466Z,22.60
2018-08-14T22:26:02.826Z,22.60
2018-08-14T22:28:31.535Z,22.60
2018-08-14T22:30:59.931Z,22.60
2018-08-14T22:33:28.212Z,22.60
2018-08-14T22:35:56.596Z,22.50
2018-08-14T22:38:30.429Z,22.50
2018-08-14T22:40:58.750Z,22.50
2018-08-14T22:43:27.088Z,22.50
2018-08-14T22:45:55.546Z,22.50
2018-08-14T22:48:23.969Z,22.40
2018-08-14T22:50:52.314Z,22.40
2018-08-14T22:53:21.147Z,22.40
2018-08-14T22:55:49.490Z,22.30
2018-08-14T22:58:17.840Z,22.40
2018-08-14T23:00:46.206Z,22.30
2018-08-14T23:03:15.021Z,22.30
2018-08-14T23:05:43.363Z,22.30
2018-08-14T23:08:11.710Z,22.30
2018-08-14T23:10:40.083Z,22.20
2018-08-14T23:13:08.442Z,22.20
2018-08-14T23:15:36.794Z,22.20
2018-08-14T23:18:05.111Z,22.20
2018-08-14T23:20:33.398Z,22.20
2018-08-14T23:23:01.719Z,22.20
2018-08-14T23:25:30.027Z,22.10
2018-08-14T23:27:58.379Z,22.10
2018-08-14T23:30:26.739Z,22.10
2018-08-14T23:32:55.048Z,22.10
2018-08-14T23:35:23.383Z,22.10
2018-08-14T23:37:51.754Z,22.10
2018-08-14T23:40:20.074Z,22.10
2018-08-14T23:42:49.030Z,22.10
2018-08-14T23:45:17.414Z,22.00
2018-08-14T23:47:45.721Z,22.00
2018-08-14T23:50:13.989Z,22.00
2018-08-14T23:52:42.326Z,22.00
2018-08-14T23:55:11.246Z,21.90
2018-08-14T23:57:39.593Z,21.90
